Time;durP1;ratioP1;P1;durP2;ratioP2;P2;SDS_P1;SDS_P2;PMS_P1;PMS_P2;Temp;Humidity;BMP_temperature;BMP_pressure;BME280_temperature;BME280_humidity;BME280_pressure;Samples;Min_cycle;Max_cycle;Signal;HPM_P1;HPM_P2
2023/04/03 00:02:18;;;;;;;7.23;4.57;;;;;;;-145.69;100.00;52571.13;5072722;28;20206;-80
2023/04/03 00:04:44;;;;;;;8.03;5.07;;;;;;;-145.69;100.00;52559.25;5072380;28;20191;-80
2023/04/03 00:07:12;;;;;;;8.97;4.50;;;;;;;-145.69;100.00;52590.94;5072606;28;20210;-80
2023/04/03 00:09:38;;;;;;;8.27;4.33;;;;;;;-145.69;100.00;52588.97;5067854;28;20657;-80
2023/04/03 00:12:05;;;;;;;6.27;4.23;;;;;;;-145.69;100.00;52594.91;5072659;28;20208;-81
2023/04/03 00:14:31;;;;;;;8.13;4.57;;;;;;;-145.69;100.00;52590.94;5072505;28;20227;-80
2023/04/03 00:16:58;;;;;;;8.33;4.80;;;;;;;-145.69;100.00;52567.16;5072208;28;20191;-81
2023/04/03 00:19:26;;;;;;;9.47;5.07;;;;;;;-145.69;100.00;52586.97;5072695;28;20202;-80
2023/04/03 00:21:53;;;;;;;8.87;5.10;;;;;;;-145.69;100.00;52586.97;5071797;28;20195;-80
2023/04/03 00:24:19;;;;;;;8.90;5.13;;;;;;;-145.69;100.00;52563.22;5072604;28;20199;-80
2023/04/03 00:26:46;;;;;;;13.53;5.80;;;;;;;-145.69;100.00;52628.56;5072456;28;20202;-80
2023/04/03 00:29:12;;;;;;;10.70;5.80;;;;;;;-145.69;100.00;52602.81;5072352;28;20198;-80
2023/04/03 00:31:39;;;;;;;9.23;5.53;;;;;;;-145.69;100.00;52586.97;5072650;28;20252;-80
2023/04/03 00:34:05;;;;;;;8.60;5.03;;;;;;;-145.69;100.00;52571.13;5075333;28;20230;-80
2023/04/03 00:36:33;;;;;;;8.63;5.53;;;;;;;-145.69;100.00;52531.53;5076300;28;20199;-80
2023/04/03 00:38:59;;;;;;;8.97;4.90;;;;;;;-145.69;100.00;52586.97;5076293;28;20209;-81
2023/04/03 00:41:26;;;;;;;11.07;5.63;;;;;;;-145.69;100.00;52588.97;5076135;28;20198;-80
2023/04/03 00:43:53;;;;;;;11.03;6.43;;;;;;;-145.69;100.00;52547.38;5076040;28;20227;-80
2023/04/03 00:46:19;;;;;;;11.53;6.30;;;;;;;-145.69;100.00;52586.97;5076062;28;20607;-80
2023/04/03 00:48:48;;;;;;;13.03;6.90;;;;;;;-145.69;100.00;52583.00;5075940;28;20285;-80
2023/04/03 00:51:17;;;;;;;13.23;6.77;;;;;;;-145.69;100.00;52569.16;5075829;28;20198;-80
2023/04/03 00:53:48;;;;;;;10.77;5.97;;;;;;;-145.69;100.00;52581.03;5076044;28;20199;-80
2023/04/03 00:56:18;;;;;;;12.93;6.27;;;;;;;-145.69;100.00;52608.75;5075678;28;20198;-79
2023/04/03 00:58:49;;;;;;;9.83;5.73;;;;;;;-145.69;100.00;52557.28;5076063;28;20207;-80
2023/04/03 01:01:21;;;;;;;11.10;6.50;;;;;;;-145.69;100.00;52610.75;5075738;28;20198;-80
2023/04/03 01:03:48;;;;;;;11.40;6.47;;;;;;;-145.69;100.00;52588.97;5075953;28;20199;-80
2023/04/03 01:06:17;;;;;;;10.63;6.17;;;;;;;-145.69;100.00;52594.91;5075976;28;20625;-80
2023/04/03 01:08:46;;;;;;;11.90;6.47;;;;;;;-145.69;100.00;52551.31;5075137;28;20211;-81
2023/04/03 01:11:13;;;;;;;13.07;6.77;;;;;;;-145.69;100.00;52594.91;5075633;28;20222;-80
2023/04/03 01:13:40;;;;;;;13.63;6.47;;;;;;;-145.69;100.00;52585.00;5075793;28;20209;-79
2023/04/03 01:16:08;;;;;;;12.47;6.07;;;;;;;-145.69;100.00;52594.91;5075604;28;20223;-80
2023/04/03 01:18:38;;;;;;;12.73;6.67;;;;;;;-145.69;100.00;52588.97;5075668;28;20207;-80
2023/04/03 01:21:40;;;;;;;13.83;6.80;;;;;;;-145.69;100.00;52541.44;5075269;28;20191;-80
2023/04/03 01:24:18;;;;;;;11.77;6.73;;;;;;;-145.69;100.00;52594.91;5075212;28;20194;-80
2023/04/03 01:26:45;;;;;;;13.87;6.80;;;;;;;-145.69;100.00;52598.84;5075457;28;20198;-79
2023/04/03 01:29:12;;;;;;;14.17;7.90;;;;;;;-145.69;100.00;52592.91;5074975;28;20205;-81
2023/04/03 01:31:49;;;;;;;13.33;7.00;;;;;;;-145.69;100.00;52590.94;5074990;28;20219;-81
2023/04/03 01:34:16;;;;;;;11.97;7.03;;;;;;;-145.69;100.00;52549.34;5075442;28;20226;-81
2023/04/03 01:36:42;;;;;;;13.30;7.33;;;;;;;-145.69;100.00;52594.91;5075861;28;20213;-81
2023/04/03 01:39:09;;;;;;;14.07;7.60;;;;;;;-145.69;100.00;52602.81;5075338;28;20203;-80
2023/04/03 01:41:36;;;;;;;12.30;7.23;;;;;;;-145.69;100.00;52614.72;5074750;28;20218;-80
2023/04/03 01:44:03;;;;;;;14.40;7.07;;;;;;;-145.69;100.00;52592.91;5074255;28;20626;-80
2023/04/03 01:46:30;;;;;;;12.33;7.23;;;;;;;-145.69;100.00;52598.84;5074864;28;20205;-80
2023/04/03 01:48:58;;;;;;;12.33;7.17;;;;;;;-145.69;100.00;52585.00;5074942;28;20203;-79
2023/04/03 01:51:25;;;;;;;13.27;7.20;;;;;;;-145.69;100.00;52620.66;5074705;28;20202;-80
2023/04/03 01:53:51;;;;;;;11.87;6.60;;;;;;;-145.69;100.00;52594.91;5074861;28;20208;-81
2023/04/03 01:56:17;;;;;;;9.90;6.17;;;;;;;-145.69;100.00;52551.31;5074694;28;20569;-81
2023/04/03 01:58:44;;;;;;;12.83;7.13;;;;;;;-145.69;100.00;52563.22;5074734;28;20203;-80
2023/04/03 02:01:10;;;;;;;13.07;6.83;;;;;;;-145.69;100.00;52594.91;5074258;28;20206;-80
2023/04/03 02:03:37;;;;;;;9.73;6.63;;;;;;;-145.69;100.00;52573.13;5074716;28;20195;-81
2023/04/03 02:06:05;;;;;;;12.07;7.03;;;;;;;-145.69;100.00;52573.13;5074727;28;20203;-81
2023/04/03 02:08:32;;;;;;;13.97;7.40;;;;;;;-145.69;100.00;52575.09;5056053;28;20226;-81
2023/04/03 02:10:58;;;;;;;14.97;6.97;;;;;;;-145.69;100.00;52610.75;5066866;28;20202;-81
2023/04/03 02:13:25;;;;;;;12.60;6.77;;;;;;;-145.69;100.00;52604.81;5074231;28;20649;-81
2023/04/03 02:15:51;;;;;;;13.73;7.53;;;;;;;-145.69;100.00;52551.31;5074016;28;20230;-81
2023/04/03 02:18:19;;;;;;;13.90;7.57;;;;;;;-145.69;100.00;52606.78;5074185;28;20278;-81
2023/04/03 02:20:45;;;;;;;15.03;7.70;;;;;;;-145.69;100.00;52610.75;5074156;28;20289;-81
2023/04/03 02:23:13;;;;;;;14.00;7.33;;;;;;;-145.69;100.00;52598.84;5074362;28;20195;-81
2023/04/03 02:25:40;;;;;;;13.67;7.30;;;;;;;-145.69;100.00;52583.00;5074327;28;20209;-82
2023/04/03 02:28:06;;;;;;;14.37;7.33;;;;;;;-145.69;100.00;52579.06;5074051;28;20216;-81
2023/04/03 02:30:33;;;;;;;12.40;6.80;;;;;;;-145.69;100.00;52579.06;5073805;28;20198;-80
2023/04/03 02:33:00;;;;;;;13.90;7.03;;;;;;;-145.69;100.00;52600.84;5074301;28;20198;-81
2023/04/03 02:35:26;;;;;;;13.13;7.63;;;;;;;-145.69;100.00;52592.91;5074152;28;20322;-80
2023/04/03 02:37:53;;;;;;;11.60;6.77;;;;;;;-145.69;100.00;52612.72;5073896;28;20198;-81
2023/04/03 02:40:20;;;;;;;17.00;6.90;;;;;;;-145.69;100.00;52622.63;5073660;28;20191;-81
2023/04/03 02:42:47;;;;;;;15.40;7.10;;;;;;;-145.69;100.00;52573.13;5073378;28;20230;-81
2023/04/03 02:45:13;;;;;;;10.63;6.57;;;;;;;-145.69;100.00;52585.00;5073618;28;20219;-81
2023/04/03 02:47:40;;;;;;;13.53;6.60;;;;;;;-145.69;100.00;52606.78;5073913;28;20203;-81
2023/04/03 02:50:07;;;;;;;17.37;6.40;;;;;;;-145.69;100.00;52594.91;5073367;28;20195;-81
2023/04/03 02:52:34;;;;;;;11.40;6.40;;;;;;;-145.69;100.00;52575.09;5073349;28;20201;-80
2023/04/03 02:55:01;;;;;;;11.70;6.93;;;;;;;-145.69;100.00;52618.66;5072933;28;20254;-81
2023/04/03 02:57:29;;;;;;;14.03;7.00;;;;;;;-145.69;100.00;52594.91;5073413;28;20205;-81
2023/04/03 02:59:55;;;;;;;11.47;5.83;;;;;;;-145.69;100.00;52559.25;5073445;28;20289;-80
2023/04/03 03:02:22;;;;;;;10.83;5.87;;;;;;;-145.69;100.00;52610.75;5073337;28;20203;-81
2023/04/03 03:04:48;;;;;;;11.37;6.40;;;;;;;-145.69;100.00;52610.75;5073536;28;20202;-81
2023/04/03 03:07:15;;;;;;;10.17;6.37;;;;;;;-145.69;100.00;52567.16;5073414;28;20195;-81
2023/04/03 03:09:41;;;;;;;13.77;6.43;;;;;;;-145.69;100.00;52583.00;5073253;28;20614;-81
2023/04/03 03:12:08;;;;;;;13.47;6.50;;;;;;;-145.69;100.00;52579.06;5073392;28;20199;-82
2023/04/03 03:14:35;;;;;;;9.43;5.90;;;;;;;-145.69;100.00;52557.28;5073533;28;20199;-81
2023/04/03 03:17:05;;;;;;;11.50;6.17;;;;;;;-145.69;100.00;52594.91;5073176;28;20198;-81
2023/04/03 03:19:31;;;;;;;11.53;6.03;;;;;;;-145.69;100.00;52588.97;5073486;28;20206;-81
2023/04/03 03:21:58;;;;;;;10.00;6.00;;;;;;;-145.69;100.00;52594.91;5072799;28;20202;-81
2023/04/03 03:24:24;;;;;;;11.37;6.30;;;;;;;-145.69;100.00;52557.28;5072976;28;20187;-81
2023/04/03 03:26:51;;;;;;;12.60;6.20;;;;;;;-145.69;100.00;52592.91;5073114;28;20207;-81
2023/04/03 03:29:17;;;;;;;10.13;6.00;;;;;;;-145.69;100.00;52610.75;5073304;28;20206;-81
2023/04/03 03:31:45;;;;;;;10.10;5.83;;;;;;;-145.69;100.00;52598.84;5072708;28;20202;-81
2023/04/03 03:34:11;;;;;;;11.30;6.20;;;;;;;-145.69;100.00;52602.81;5073040;28;20692;-81
2023/04/03 03:36:38;;;;;;;9.17;5.70;;;;;;;-145.69;100.00;52606.78;5072905;28;20317;-82
2023/04/03 03:39:05;;;;;;;10.33;5.33;;;;;;;-145.69;100.00;52616.69;5073183;28;20198;-81
2023/04/03 03:41:31;;;;;;;9.10;5.23;;;;;;;-145.69;100.00;52567.16;5072618;28;20291;-82
2023/04/03 03:43:58;;;;;;;9.00;5.67;;;;;;;-145.69;100.00;52590.94;5072599;28;20226;-80
2023/04/03 03:46:24;;;;;;;12.70;6.43;;;;;;;-145.69;100.00;52604.81;5072490;28;20191;-80
2023/04/03 03:48:52;;;;;;;9.53;5.60;;;;;;;-145.69;100.00;52586.97;5072806;28;20206;-81
2023/04/03 03:51:19;;;;;;;8.27;5.33;;;;;;;-145.69;100.00;52571.13;5072692;28;20198;-81
2023/04/03 03:53:45;;;;;;;8.83;5.50;;;;;;;-145.69;100.00;52585.00;5072441;28;20202;-82
2023/04/03 03:56:15;;;;;;;9.23;5.70;;;;;;;-145.69;100.00;52559.25;5072933;28;20233;-81
2023/04/03 03:58:41;;;;;;;8.40;5.40;;;;;;;-145.69;100.00;52571.13;5072856;28;20320;-81
2023/04/03 04:01:08;;;;;;;10.63;5.90;;;;;;;-145.69;100.00;52585.00;5072853;28;20198;-81
2023/04/03 04:03:35;;;;;;;10.57;5.70;;;;;;;-145.69;100.00;52579.06;5072660;28;20202;-81
2023/04/03 04:06:02;;;;;;;8.83;5.37;;;;;;;-145.69;100.00;52575.09;5072447;28;20844;-81
2023/04/03 04:08:29;;;;;;;7.07;4.77;;;;;;;-145.69;100.00;52583.00;5074772;28;20376;-80
2023/04/03 04:10:58;;;;;;;8.60;5.43;;;;;;;-145.69;100.00;52598.84;5076847;28;20202;-81
2023/04/03 04:13:25;;;;;;;7.53;5.00;;;;;;;-145.69;100.00;52594.91;5076025;28;20191;-80
2023/04/03 04:15:51;;;;;;;9.17;5.20;;;;;;;-145.69;100.00;52583.00;5075115;28;20222;-81
2023/04/03 04:18:19;;;;;;;10.13;5.03;;;;;;;-145.69;100.00;52586.97;5075939;28;20527;-81
2023/04/03 04:20:46;;;;;;;10.27;5.10;;;;;;;-145.69;100.00;52606.78;5076760;28;20256;-80
2023/04/03 04:23:17;;;;;;;8.90;4.70;;;;;;;-145.69;100.00;52555.28;5075910;28;20198;-81
2023/04/03 04:25:45;;;;;;;9.63;4.93;;;;;;;-145.69;100.00;52626.59;5076562;28;20209;-81
2023/04/03 04:28:11;;;;;;;7.70;4.77;;;;;;;-145.69;100.00;52592.91;5076406;28;20206;-81
2023/04/03 04:30:38;;;;;;;6.77;4.23;;;;;;;-145.69;100.00;52585.00;5075933;28;20191;-81
2023/04/03 04:33:05;;;;;;;9.27;5.03;;;;;;;-145.69;100.00;52575.09;5076110;28;20195;-81
2023/04/03 04:35:31;;;;;;;8.97;4.73;;;;;;;-145.69;100.00;52610.75;5076440;28;20230;-81
2023/04/03 04:38:02;;;;;;;10.27;4.80;;;;;;;-145.69;100.00;52586.97;5076314;28;20684;-81
2023/04/03 04:40:33;;;;;;;9.13;4.53;;;;;;;-145.69;100.00;52594.91;5076374;28;20203;-81
2023/04/03 04:43:02;;;;;;;10.33;4.60;;;;;;;-145.69;100.00;52588.97;5075906;28;20222;-81
2023/04/03 04:45:31;;;;;;;6.57;4.07;;;;;;;-145.69;100.00;52606.78;5076107;28;20195;-81
2023/04/03 04:48:07;;;;;;;6.87;3.83;;;;;;;-145.69;100.00;52579.06;5075933;28;20205;-81
2023/04/03 04:50:33;;;;;;;5.87;3.70;;;;;;;-145.69;100.00;52592.91;5075986;28;20464;-81
2023/04/03 04:53:00;;;;;;;6.37;3.50;;;;;;;-145.69;100.00;52598.84;5075535;28;20198;-81
2023/04/03 04:55:26;;;;;;;4.00;2.90;;;;;;;-145.69;100.00;52557.28;5075865;28;20222;-81
2023/04/03 04:57:54;;;;;;;5.70;3.23;;;;;;;-145.69;100.00;52590.94;5075657;28;20199;-80
2023/04/03 05:00:21;;;;;;;5.37;3.27;;;;;;;-145.69;100.00;52571.13;5075954;28;20282;-81
2023/04/03 05:02:47;;;;;;;6.20;3.27;;;;;;;-145.69;100.00;52606.78;5075644;28;20206;-81
2023/04/03 05:05:14;;;;;;;6.00;3.50;;;;;;;-145.69;100.00;52588.97;5075522;28;20199;-81
2023/04/03 05:07:41;;;;;;;5.97;3.43;;;;;;;-145.69;100.00;52579.06;5075724;28;20278;-81
2023/04/03 05:10:09;;;;;;;5.13;3.10;;;;;;;-145.69;100.00;52586.97;5075761;28;20241;-81
2023/04/03 05:12:36;;;;;;;4.67;3.50;;;;;;;-145.69;100.00;52602.81;5075278;28;20542;-81
2023/04/03 05:15:05;;;;;;;8.13;3.33;;;;;;;-145.69;100.00;52583.00;5074945;28;20199;-80
2023/04/03 05:17:31;;;;;;;5.40;3.63;;;;;;;-145.69;100.00;52567.16;5075509;28;20226;-81
2023/04/03 05:19:58;;;;;;;7.67;3.60;;;;;;;-145.69;100.00;52579.06;5074652;28;20218;-81
2023/04/03 05:22:27;;;;;;;6.80;3.50;;;;;;;-145.69;100.00;52594.91;5075174;28;20205;-81
2023/04/03 05:24:53;;;;;;;7.73;3.70;;;;;;;-145.69;100.00;52575.09;5074089;28;20198;-80
2023/04/03 05:27:20;;;;;;;5.77;3.27;;;;;;;-145.69;100.00;52606.78;5075315;28;20599;-81
2023/04/03 05:29:49;;;;;;;6.97;3.63;;;;;;;-145.69;100.00;52596.88;5075415;28;20210;-81
2023/04/03 05:32:17;;;;;;;5.93;3.70;;;;;;;-145.69;100.00;52596.88;5075100;28;20199;-81
2023/04/03 05:34:48;;;;;;;10.00;3.87;;;;;;;-145.69;100.00;52598.84;5075255;28;20252;-80
2023/04/03 05:37:14;;;;;;;5.37;3.57;;;;;;;-145.69;100.00;52547.38;5055186;28;20628;-81
2023/04/03 05:39:41;;;;;;;5.93;3.87;;;;;;;-145.69;100.00;52610.75;5055101;28;20214;-81
2023/04/03 05:42:11;;;;;;;8.43;3.70;;;;;;;-145.69;100.00;52594.91;5055117;28;20208;-81
2023/04/03 05:44:37;;;;;;;5.43;3.43;;;;;;;-145.69;100.00;52604.81;5066529;28;20203;-80
2023/04/03 05:47:04;;;;;;;5.33;3.50;;;;;;;-145.69;100.00;52602.81;5074892;28;20206;-81
2023/04/03 05:49:32;;;;;;;6.17;3.43;;;;;;;-145.69;100.00;52581.03;5074733;28;20268;-81
2023/04/03 05:51:58;;;;;;;5.17;3.30;;;;;;;-145.69;100.00;52563.22;5073595;28;20199;-81
2023/04/03 05:54:30;;;;;;;6.43;3.30;;;;;;;-145.69;100.00;52594.91;5074532;28;20214;-81
2023/04/03 05:56:57;;;;;;;6.57;2.93;;;;;;;-145.69;100.00;52561.22;5074521;28;20229;-81
2023/04/03 05:59:23;;;;;;;5.37;2.93;;;;;;;-145.69;100.00;52585.00;5074545;28;20199;-81
2023/04/03 06:01:50;;;;;;;3.73;2.97;;;;;;;-145.69;100.00;52583.00;5073753;28;20202;-81
2023/04/03 06:04:18;;;;;;;5.57;2.97;;;;;;;-145.69;100.00;52577.06;5056602;28;20202;-80
2023/04/03 06:06:52;;;;;;;4.57;3.00;;;;;;;-145.69;100.00;52586.97;5054403;28;20210;-81
2023/04/03 06:09:22;;;;;;;6.73;3.30;;;;;;;-145.69;100.00;52551.31;5054829;28;20203;-81
2023/04/03 06:11:49;;;;;;;6.30;2.40;;;;;;;-145.69;100.00;52596.88;5071814;28;20205;-81
2023/04/03 06:14:15;;;;;;;3.23;2.50;;;;;;;-145.69;100.00;52571.13;5074461;28;20561;-81
2023/04/03 06:16:43;;;;;;;4.93;2.60;;;;;;;-145.69;100.00;52585.00;5074131;28;20234;-80
2023/04/03 06:19:10;;;;;;;3.70;2.83;;;;;;;-145.69;100.00;52583.00;5073985;28;20286;-81
2023/04/03 06:21:37;;;;;;;3.03;2.03;;;;;;;-145.69;100.00;52586.97;5074189;28;20285;-80
2023/04/03 06:24:06;;;;;;;5.57;2.23;;;;;;;-145.69;100.00;52559.25;5073950;28;20214;-81
2023/04/03 06:26:33;;;;;;;3.53;2.47;;;;;;;-145.69;100.00;52575.09;5073965;28;20275;-79
2023/04/03 06:28:59;;;;;;;4.27;2.77;;;;;;;-145.69;100.00;52571.13;5073996;28;20222;-81
2023/04/03 06:31:26;;;;;;;3.23;2.17;;;;;;;-145.69;100.00;52602.81;5073525;28;20194;-81
2023/04/03 06:33:52;;;;;;;4.73;2.60;;;;;;;-145.69;100.00;52585.00;5074000;28;20237;-80
2023/04/03 06:36:20;;;;;;;4.40;2.60;;;;;;;-145.69;100.00;52543.41;5073376;28;20321;-81
2023/04/03 06:38:48;;;;;;;4.33;2.60;;;;;;;-145.69;100.00;52563.22;5074096;28;20195;-81
2023/04/03 06:41:17;;;;;;;4.47;2.43;;;;;;;-145.69;100.00;52543.41;5073825;28;20237;-81
2023/04/03 06:43:43;;;;;;;6.50;2.60;;;;;;;-145.69;100.00;52602.81;5073833;28;20230;-81
2023/04/03 06:46:14;;;;;;;3.73;2.30;;;;;;;-145.69;100.00;52573.13;5073611;28;20205;-80
2023/04/03 06:48:41;;;;;;;4.37;2.33;;;;;;;-145.69;100.00;52519.63;5073632;28;20206;-80
2023/04/03 06:51:19;;;;;;;3.97;2.27;;;;;;;-145.69;99.49;52539.44;5072954;28;20205;-80
2023/04/03 06:53:46;;;;;;;4.27;2.30;;;;;;;-145.69;100.00;52606.78;5073846;28;20199;-80
2023/04/03 06:56:13;;;;;;;3.00;2.17;;;;;;;-145.69;100.00;52561.22;5073059;28;20235;-81
2023/04/03 06:58:41;;;;;;;6.50;2.07;;;;;;;-145.69;98.79;52555.28;5073503;28;20213;-80
2023/04/03 07:01:09;;;;;;;3.50;1.90;;;;;;;-145.69;100.00;52559.25;5073157;28;20608;-81
2023/04/03 07:03:36;;;;;;;2.57;1.90;;;;;;;-145.69;97.48;52590.94;5073371;28;20672;-81
2023/04/03 07:06:03;;;;;;;3.03;1.87;;;;;;;-145.69;97.29;52579.06;5073041;28;20736;-81
2023/04/03 07:08:30;;;;;;;2.90;1.97;;;;;;;-145.69;94.49;52529.53;5073195;28;20207;-80
2023/04/03 07:10:57;;;;;;;5.97;1.83;;;;;;;-145.69;97.92;52551.31;5072597;28;20191;-81
2023/04/03 07:13:26;;;;;;;2.47;1.70;;;;;;;-145.69;93.34;52547.38;5072364;28;21018;-81
2023/04/03 07:15:54;;;;;;;1.97;1.60;;;;;;;-145.69;93.65;52555.28;5073212;28;20194;-81
2023/04/03 07:18:21;;;;;;;3.07;1.60;;;;;;;-145.69;87.33;52559.25;5073271;28;20230;-81
2023/04/03 07:20:47;;;;;;;2.13;1.50;;;;;;;-145.69;92.54;52539.44;5072783;28;20222;-81
2023/04/03 07:23:14;;;;;;;1.80;1.57;;;;;;;-145.69;92.32;52553.31;5073285;28;20199;-80
2023/04/03 07:25:44;;;;;;;1.77;1.40;;;;;;;-145.69;90.56;52551.31;5073255;28;20210;-79
2023/04/03 07:28:14;;;;;;;4.37;1.67;;;;;;;-145.69;89.43;52555.28;5073699;28;20534;-81
2023/04/03 07:30:45;;;;;;;5.20;1.50;;;;;;;-145.69;84.85;52517.66;5072991;28;20188;-80
2023/04/03 07:33:14;;;;;;;2.90;1.40;;;;;;;-145.69;87.00;52573.13;5073064;28;20209;-81
2023/04/03 07:35:41;;;;;;;2.40;1.40;;;;;;;-145.69;89.72;52592.91;5073036;28;20672;-81
2023/04/03 07:38:08;;;;;;;3.67;1.73;;;;;;;-145.69;84.85;52527.56;5072891;28;20224;-80
2023/04/03 07:40:35;;;;;;;3.10;1.60;;;;;;;-145.69;88.86;52586.97;5072746;28;20195;-79
2023/04/03 07:43:02;;;;;;;1.97;1.50;;;;;;;-145.69;92.81;52553.31;5072286;28;20226;-80
2023/04/03 07:45:29;;;;;;;2.70;1.83;;;;;;;-145.69;86.35;52561.22;5072144;28;20193;-80
2023/04/03 07:47:55;;;;;;;3.70;1.60;;;;;;;-145.69;83.75;52583.00;5073003;28;20577;-80
2023/04/03 07:50:24;;;;;;;2.33;1.50;;;;;;;-145.69;88.65;52551.31;5072526;28;20281;-81
2023/04/03 07:52:52;;;;;;;3.87;1.73;;;;;;;-145.69;84.67;52569.16;5072327;28;20573;-80
2023/04/03 07:55:19;;;;;;;2.10;1.80;;;;;;;-145.69;89.88;52555.28;5072337;28;20449;-81
2023/04/03 07:57:45;;;;;;;2.10;1.60;;;;;;;-145.69;92.75;52545.38;5073018;28;20232;-82
2023/04/03 08:00:13;;;;;;;4.03;1.50;;;;;;;-145.69;87.43;52543.41;5058084;28;20199;-77
2023/04/03 08:02:39;;;;;;;2.07;1.60;;;;;;;-145.69;91.35;52563.22;5057624;28;20199;-78
2023/04/03 08:05:07;;;;;;;2.37;1.77;;;;;;;-145.69;85.09;52594.91;5072695;28;20530;-79
2023/04/03 08:07:34;;;;;;;3.73;2.10;;;;;;;-145.69;90.27;52545.38;5072159;28;20195;-78
2023/04/03 08:10:01;;;;;;;2.70;1.50;;;;;;;-145.69;85.52;52555.28;5072851;28;20249;-80
2023/04/03 08:12:28;;;;;;;2.13;1.60;;;;;;;-145.69;82.45;52549.34;5072915;28;20199;-82
2023/04/03 08:14:55;;;;;;;4.27;1.70;;;;;;;-145.69;83.27;52515.69;5072577;28;20199;-80
2023/04/03 08:17:21;;;;;;;2.47;1.50;;;;;;;-145.69;81.01;52523.59;5075777;28;20222;-84
2023/04/03 08:19:48;;;;;;;2.47;1.53;;;;;;;-145.69;81.28;52539.44;5074529;28;20657;-82
2023/04/03 08:22:14;;;;;;;2.63;1.43;;;;;;;-145.69;79.12;52521.63;5073381;28;20199;-81
2023/04/03 08:24:42;;;;;;;3.33;1.80;;;;;;;-145.69;83.70;52551.31;5073193;28;20206;-81
2023/04/03 08:27:08;;;;;;;2.20;1.40;;;;;;;-145.69;84.59;52531.53;5073950;28;20217;-82
2023/04/03 08:29:37;;;;;;;3.07;1.87;;;;;;;-145.69;86.35;52527.56;5072290;28;20195;-81
2023/04/03 08:32:04;;;;;;;4.60;2.07;;;;;;;-145.69;81.56;52529.53;5072432;28;20252;-80
2023/04/03 08:34:30;;;;;;;2.70;1.40;;;;;;;-145.69;88.17;52567.16;5072175;28;20206;-81
2023/04/03 08:36:57;;;;;;;2.53;1.50;;;;;;;-145.69;84.65;52563.22;5072042;28;20562;-81
2023/04/03 08:39:23;;;;;;;2.27;1.80;;;;;;;-145.69;84.20;52539.44;5072337;28;20206;-81
2023/04/03 08:41:51;;;;;;;2.23;1.70;;;;;;;-145.69;79.07;52507.75;5072240;28;20195;-81
2023/04/03 08:44:26;;;;;;;1.80;1.70;;;;;;;-145.69;77.33;52503.81;5072362;28;20230;-80
2023/04/03 08:47:12;;;;;;;4.87;2.10;;;;;;;-145.69;83.57;52541.44;5072008;28;20553;-81
2023/04/03 08:49:46;;;;;;;3.23;2.00;;;;;;;-145.69;88.85;52543.41;5072447;28;20230;-81
2023/04/03 08:52:18;;;;;;;2.57;1.70;;;;;;;-145.69;77.91;52509.75;5072065;28;20294;-80
2023/04/03 08:54:53;;;;;;;2.77;1.90;;;;;;;-145.69;78.21;52561.22;5074078;28;20669;-80
2023/04/03 08:57:30;;;;;;;3.83;1.80;;;;;;;-145.69;84.41;52523.59;5072559;28;20233;-80
2023/04/03 08:59:59;;;;;;;2.97;1.60;;;;;;;-145.69;82.77;52517.66;5075409;28;20267;-80
2023/04/03 09:02:33;;;;;;;2.03;1.40;;;;;;;-145.69;79.34;52531.53;5075338;28;20198;-79
2023/04/03 09:05:00;;;;;;;2.73;1.50;;;;;;;-145.69;79.71;52519.63;5059233;28;20226;-79
2023/04/03 09:07:40;;;;;;;3.07;1.83;;;;;;;-145.69;76.29;52535.47;5060400;28;20562;-79
2023/04/03 09:10:07;;;;;;;5.20;2.27;;;;;;;-145.69;81.16;52531.53;5064683;28;20202;-80
2023/04/03 09:12:40;;;;;;;2.00;1.70;;;;;;;-145.69;84.41;52509.75;5075322;28;20202;-76
2023/04/03 09:15:14;;;;;;;3.80;1.90;;;;;;;-145.69;86.47;52543.41;5075856;28;20241;-76
2023/04/03 09:17:47;;;;;;;2.57;1.87;;;;;;;-145.69;85.51;52539.44;5075618;28;20225;-77
2023/04/03 09:20:23;;;;;;;2.23;1.77;;;;;;;-145.69;80.59;52507.75;5075745;28;20203;-76
2023/04/03 09:22:52;;;;;;;3.90;2.20;;;;;;;-145.69;85.53;52525.59;5075888;28;20199;-79
2023/04/03 09:25:22;;;;;;;2.20;1.60;;;;;;;-145.69;83.59;52519.63;5075272;28;20201;-78
2023/04/03 09:27:50;;;;;;;3.03;2.00;;;;;;;-145.69;81.83;52517.66;5066962;28;20202;-79
2023/04/03 09:30:19;;;;;;;3.37;1.70;;;;;;;-145.69;78.80;52551.31;5070077;28;20573;-79
2023/04/03 09:32:51;;;;;;;4.77;2.07;;;;;;;-145.69;80.78;52523.59;5074879;28;20214;-78
2023/04/03 09:35:22;;;;;;;3.33;1.80;;;;;;;-145.69;77.67;52525.59;5057542;28;20199;-80
2023/04/03 09:37:51;;;;;;;5.33;2.20;;;;;;;-145.69;81.39;52537.47;5072341;28;20244;-79
2023/04/03 09:40:38;;;;;;;2.80;1.90;;;;;;;-145.69;84.14;52523.59;5059828;28;20238;-81
2023/04/03 09:43:38;;;;;;;2.47;1.90;;;;;;;-145.69;83.74;52531.53;5073613;28;20314;-80
2023/04/03 09:46:28;;;;;;;2.83;1.77;;;;;;;-145.69;81.03;52525.59;5065137;28;20218;-80
2023/04/03 09:48:58;;;;;;;3.17;1.90;;;;;;;-145.69;82.97;52523.59;5065844;28;20200;-80
2023/04/03 09:51:28;;;;;;;1.97;1.77;;;;;;;-145.69;90.33;52539.44;5064205;28;20208;-80
2023/04/03 09:53:55;;;;;;;2.93;1.73;;;;;;;-145.69;74.01;52533.50;5061936;28;20199;-79
2023/04/03 09:56:25;;;;;;;4.43;2.07;;;;;;;-145.69;76.20;52489.94;5059421;28;20666;-80
2023/04/03 09:59:07;;;;;;;2.97;1.87;;;;;;;-145.69;69.04;52515.69;5064572;28;20620;-80
2023/04/03 10:01:37;;;;;;;5.03;2.03;;;;;;;-145.69;76.78;52511.72;5058623;28;20204;-79
2023/04/03 10:04:07;;;;;;;4.30;2.10;;;;;;;-145.69;81.27;52531.53;5065578;28;20658;-80
2023/04/03 10:06:36;;;;;;;5.83;1.90;;;;;;;-145.69;74.58;52521.63;5066558;28;20202;-80
2023/04/03 10:09:05;;;;;;;5.60;1.97;;;;;;;-145.69;73.89;52513.69;5067460;28;20203;-80
2023/04/03 10:11:32;;;;;;;3.40;1.87;;;;;;;-145.69;76.57;52501.81;5061937;28;20210;-81
2023/04/03 10:14:01;;;;;;;2.90;1.90;;;;;;;-145.69;75.75;52521.63;5064851;28;20207;-81
2023/04/03 10:16:33;;;;;;;2.13;1.60;;;;;;;-145.69;74.91;52511.72;5072169;28;20199;-81
2023/04/03 10:19:16;;;;;;;3.80;1.50;;;;;;;-145.69;65.71;52505.78;5072376;28;20226;-81
2023/04/03 10:21:49;;;;;;;6.00;1.73;;;;;;;-145.69;61.37;52482.00;5066567;28;20195;-81
2023/04/03 10:24:22;;;;;;;2.10;1.77;;;;;;;-145.69;61.42;52478.06;5072531;28;20566;-80
2023/04/03 10:26:57;;;;;;;3.37;1.60;;;;;;;-145.69;67.80;52482.00;5067641;28;20568;-80
2023/04/03 10:29:37;;;;;;;2.07;1.20;;;;;;;-145.69;67.00;52491.91;5058316;28;20191;-81
2023/04/03 10:32:18;;;;;;;2.27;1.47;;;;;;;-145.69;62.67;52529.53;5064428;28;20603;-80
2023/04/03 10:34:47;;;;;;;2.43;1.90;;;;;;;-145.69;66.33;52482.00;5072427;28;20202;-82
2023/04/03 10:37:22;;;;;;;2.07;1.60;;;;;;;-145.69;68.00;52495.88;5066262;28;20228;-83
2023/04/03 10:39:57;;;;;;;2.27;1.53;;;;;;;-145.69;69.32;52491.91;5066237;28;22047;-82
2023/04/03 10:42:30;;;;;;;3.03;1.60;;;;;;;-145.69;70.37;52517.66;5063260;28;20206;-81
2023/04/03 10:45:08;;;;;;;3.60;1.93;;;;;;;-145.69;62.88;52507.75;5055034;28;20226;-82
2023/04/03 10:47:47;;;;;;;2.63;1.80;;;;;;;-145.69;67.30;52485.97;5069553;28;20206;-79
2023/04/03 10:50:32;;;;;;;2.00;1.80;;;;;;;-145.69;74.11;52440.44;5074841;28;20211;-84
2023/04/03 10:53:05;;;;;;;2.73;1.70;;;;;;;-145.69;65.76;52515.69;5074965;28;20213;-84
2023/04/03 10:55:36;;;;;;;3.27;1.67;;;;;;;-145.69;62.10;52519.63;5076516;28;20214;-84
2023/04/03 10:58:05;;;;;;;2.77;2.00;;;;;;;-145.69;68.57;52495.88;5078680;28;20230;-84
2023/04/03 11:00:40;;;;;;;4.87;1.77;;;;;;;-145.69;55.44;52535.47;5078012;28;20249;-84
2023/04/03 11:03:12;;;;;;;4.83;1.73;;;;;;;-145.69;59.00;52507.75;5076739;28;20774;-83
2023/04/03 11:05:43;;;;;;;2.07;1.60;;;;;;;-145.69;60.84;52515.69;5075553;28;20205;-83
2023/04/03 11:08:20;;;;;;;2.97;1.70;;;;;;;-145.69;59.33;52529.53;5067795;28;20248;-84
2023/04/03 11:10:50;;;;;;;3.00;1.97;;;;;;;-145.69;69.79;52468.16;5077482;28;20202;-83
2023/04/03 11:13:22;;;;;;;2.23;1.60;;;;;;;-145.69;65.56;52529.53;5075214;28;20209;-83
2023/04/03 11:15:50;;;;;;;3.43;2.03;;;;;;;-145.69;60.65;52491.91;5075780;28;20204;-84
2023/04/03 11:18:20;;;;;;;2.73;1.90;;;;;;;-145.69;66.42;52499.84;5073685;28;20223;-84